Time;durP1;ratioP1;P1;durP2;ratioP2;P2;SDS_P1;SDS_P2;PMS_P1;PMS_P2;Temp;Humidity;BMP_temperature;BMP_pressure;BME280_temperature;BME280_humidity;BME280_pressure;Samples;Min_cycle;Max_cycle;Signal;HPM_P1;HPM_P2
2022/10/27 00:00:40;;;;;;;11.23;8.23;;;23.80;52.80;;;;;;5067918;28;20638;-62
2022/10/27 00:03:10;;;;;;;10.07;8.27;;;23.80;52.80;;;;;;5067672;28;20067;-61
2022/10/27 00:05:42;;;;;;;11.05;8.18;;;23.80;52.80;;;;;;5067688;28;20040;-61
2022/10/27 00:08:16;;;;;;;9.88;7.78;;;23.80;52.70;;;;;;5066158;28;20052;-61
2022/10/27 00:10:44;;;;;;;11.88;8.30;;;23.80;52.70;;;;;;5066896;28;20408;-61
2022/10/27 00:13:12;;;;;;;10.65;8.45;;;23.70;52.70;;;;;;5063269;28;20056;-61
2022/10/27 00:15:40;;;;;;;11.35;8.02;;;23.80;52.70;;;;;;5067353;28;20191;-61
2022/10/27 00:18:09;;;;;;;13.98;8.50;;;23.70;52.70;;;;;;5067921;28;20048;-61
2022/10/27 00:20:37;;;;;;;10.73;7.93;;;23.70;52.70;;;;;;5067684;28;20048;-62
2022/10/27 00:23:04;;;;;;;11.18;8.13;;;23.70;52.70;;;;;;5066350;28;20052;-61
2022/10/27 00:25:31;;;;;;;10.85;8.27;;;23.70;52.70;;;;;;5068000;28;20444;-62
2022/10/27 00:27:58;;;;;;;10.77;7.50;;;23.70;52.70;;;;;;5067372;28;20052;-61
2022/10/27 00:30:25;;;;;;;10.20;7.30;;;23.70;52.80;;;;;;5067794;28;20047;-61
2022/10/27 00:32:52;;;;;;;11.05;7.93;;;23.70;52.80;;;;;;5067298;28;20052;-61
2022/10/27 00:35:20;;;;;;;8.60;7.13;;;23.70;52.80;;;;;;5067273;28;20512;-61
2022/10/27 00:37:47;;;;;;;12.18;7.95;;;23.70;52.80;;;;;;5067032;28;20456;-61
2022/10/27 00:40:15;;;;;;;10.05;7.82;;;23.70;52.80;;;;;;5068012;28;20045;-61
2022/10/27 00:42:42;;;;;;;10.93;8.20;;;23.70;52.80;;;;;;5067067;28;20420;-62
2022/10/27 00:45:09;;;;;;;9.63;7.65;;;23.60;52.80;;;;;;5063037;28;20045;-61
2022/10/27 00:47:37;;;;;;;11.40;8.18;;;23.70;52.80;;;;;;5067502;28;20044;-62
2022/10/27 00:50:18;;;;;;;10.75;8.00;;;23.60;52.80;;;;;;5049767;28;20521;-61
2022/10/27 00:52:50;;;;;;;10.48;7.47;;;23.70;52.90;;;;;;5066503;28;20496;-62
2022/10/27 00:55:23;;;;;;;10.60;8.00;;;23.70;52.90;;;;;;5067331;28;20045;-61
2022/10/27 00:57:53;;;;;;;11.32;7.72;;;23.70;52.90;;;;;;5069075;28;20153;-61
2022/10/27 01:00:20;;;;;;;11.00;7.93;;;23.70;52.90;;;;;;5071744;28;20086;-61
2022/10/27 01:02:48;;;;;;;11.00;7.53;;;23.60;52.80;;;;;;5071324;28;20135;-62
2022/10/27 01:05:19;;;;;;;10.10;7.63;;;23.60;52.90;;;;;;5071578;28;20095;-61
2022/10/27 01:07:48;;;;;;;9.73;7.93;;;23.60;52.80;;;;;;5069614;28;20060;-61
2022/10/27 01:10:16;;;;;;;9.90;7.43;;;23.60;52.90;;;;;;5069914;28;20051;-61
2022/10/27 01:12:45;;;;;;;10.52;8.02;;;23.60;52.90;;;;;;5070466;28;20268;-62
2022/10/27 01:15:13;;;;;;;11.48;7.72;;;23.60;52.90;;;;;;5071481;28;20062;-61
2022/10/27 01:17:52;;;;;;;11.15;7.53;;;23.60;52.80;;;;;;5066104;28;20068;-62
2022/10/27 01:20:51;;;;;;;10.68;7.65;;;23.60;52.80;;;;;;5071261;28;20055;-61
2022/10/27 01:23:39;;;;;;;8.23;6.83;;;23.60;52.80;;;;;;5071636;28;20425;-61
2022/10/27 01:26:46;;;;;;;9.93;7.20;;;23.60;52.80;;;;;;5069554;28;20281;-61
2022/10/27 01:29:53;;;;;;;12.63;7.93;;;23.60;52.80;;;;;;5055251;28;20071;-61
2022/10/27 01:32:39;;;;;;;10.48;8.20;;;23.60;52.80;;;;;;5070608;28;20044;-61
2022/10/27 01:35:37;;;;;;;10.48;8.20;;;23.60;52.70;;;;;;5070815;28;20051;-61
2022/10/27 01:38:16;;;;;;;9.25;6.55;;;23.60;52.70;;;;;;5070813;28;20063;-61
2022/10/27 01:40:55;;;;;;;8.98;6.65;;;23.60;52.70;;;;;;5070578;28;20052;-61
2022/10/27 01:43:25;;;;;;;10.15;7.18;;;23.60;52.70;;;;;;5070112;28;20052;-61
2022/10/27 01:45:54;;;;;;;9.05;6.60;;;23.60;52.70;;;;;;5069661;28;20418;-61
2022/10/27 01:48:22;;;;;;;12.00;7.13;;;23.60;52.70;;;;;;5070686;28;20052;-61
2022/10/27 01:50:49;;;;;;;9.80;7.00;;;23.60;52.70;;;;;;5066123;28;20044;-62
2022/10/27 01:53:30;;;;;;;9.65;7.43;;;23.60;52.80;;;;;;5070283;28;20127;-61
2022/10/27 01:56:17;;;;;;;9.30;7.53;;;23.60;53.30;;;;;;5070174;28;20493;-61
2022/10/27 01:59:16;;;;;;;9.60;7.22;;;23.60;52.80;;;;;;5070170;28;20041;-62
2022/10/27 02:02:05;;;;;;;8.90;7.13;;;23.60;52.80;;;;;;5069053;28;20040;-61
2022/10/27 02:05:03;;;;;;;8.65;6.75;;;23.60;52.90;;;;;;5070386;28;20052;-62
2022/10/27 02:07:55;;;;;;;7.32;6.60;;;23.60;52.80;;;;;;5068833;28;20053;-61
2022/10/27 02:10:27;;;;;;;8.48;6.55;;;23.50;52.80;;;;;;5068472;28;20044;-61
2022/10/27 02:12:56;;;;;;;9.52;6.28;;;23.50;52.80;;;;;;5069622;28;20041;-61
2022/10/27 02:15:38;;;;;;;10.25;7.43;;;23.50;52.80;;;;;;5069884;28;20041;-62
2022/10/27 02:18:10;;;;;;;8.35;6.43;;;23.50;52.90;;;;;;5068773;28;20071;-61
2022/10/27 02:20:42;;;;;;;8.75;6.82;;;23.50;52.80;;;;;;5070370;28;20080;-61
2022/10/27 02:23:15;;;;;;;10.27;6.85;;;23.50;52.80;;;;;;5065055;28;20169;-61
2022/10/27 02:25:57;;;;;;;8.93;6.90;;;23.50;52.80;;;;;;5070273;28;20052;-61
2022/10/27 02:28:30;;;;;;;9.20;7.00;;;23.50;52.80;;;;;;5069854;28;20049;-62
2022/10/27 02:30:59;;;;;;;9.60;6.32;;;23.50;52.80;;;;;;5069794;28;20040;-62
2022/10/27 02:33:26;;;;;;;8.23;6.93;;;23.50;52.80;;;;;;5069313;28;20407;-61
2022/10/27 02:35:55;;;;;;;8.25;6.65;;;23.50;52.80;;;;;;5068580;28;20052;-62
2022/10/27 02:38:23;;;;;;;7.50;6.28;;;23.50;52.80;;;;;;5069291;28;20444;-62
2022/10/27 02:40:50;;;;;;;7.40;6.18;;;23.50;52.90;;;;;;5069952;28;20060;-61
2022/10/27 02:43:17;;;;;;;8.60;6.43;;;23.50;52.80;;;;;;5068516;28;20055;-62
2022/10/27 02:45:44;;;;;;;8.52;6.35;;;23.50;52.80;;;;;;5069644;28;20048;-61
2022/10/27 02:48:11;;;;;;;7.43;6.05;;;23.50;52.80;;;;;;5069785;28;20048;-62
2022/10/27 02:50:38;;;;;;;7.68;6.03;;;23.50;52.80;;;;;;5068770;28;20489;-61
2022/10/27 02:53:10;;;;;;;8.43;6.53;;;23.50;52.70;;;;;;5068601;28;20416;-61
2022/10/27 02:55:37;;;;;;;6.78;5.75;;;23.50;52.70;;;;;;5064415;28;20048;-62
2022/10/27 02:58:04;;;;;;;8.20;6.38;;;23.50;52.70;;;;;;5069189;28;20055;-62
2022/10/27 03:00:31;;;;;;;7.82;6.00;;;23.50;52.60;;;;;;5067503;28;20052;-61
2022/10/27 03:02:58;;;;;;;9.00;6.65;;;23.60;52.60;;;;;;5067278;28;20563;-62
2022/10/27 03:05:25;;;;;;;7.38;6.07;;;23.50;52.60;;;;;;5064754;28;20367;-62
2022/10/27 03:07:52;;;;;;;7.43;6.00;;;23.50;52.60;;;;;;5068473;28;20049;-61
2022/10/27 03:10:19;;;;;;;7.03;6.00;;;23.50;52.60;;;;;;5068674;28;20037;-62
2022/10/27 03:12:49;;;;;;;7.45;6.00;;;23.50;52.60;;;;;;5066656;28;20426;-61
2022/10/27 03:15:17;;;;;;;7.88;6.13;;;23.50;52.60;;;;;;5069184;28;20481;-61
2022/10/27 03:17:45;;;;;;;7.60;5.80;;;23.50;52.60;;;;;;5068564;28;20049;-61
2022/10/27 03:20:13;;;;;;;7.68;6.43;;;23.50;52.60;;;;;;5068578;28;20275;-61
2022/10/27 03:22:41;;;;;;;6.30;5.40;;;23.50;52.70;;;;;;5066941;28;20044;-61
2022/10/27 03:25:10;;;;;;;6.63;5.43;;;23.40;52.60;;;;;;5068472;28;20051;-62
2022/10/27 03:27:42;;;;;;;8.07;6.18;;;23.50;52.70;;;;;;5062552;28;20057;-61
2022/10/27 03:30:13;;;;;;;6.68;5.68;;;23.50;52.70;;;;;;5068689;28;20040;-62
2022/10/27 03:32:40;;;;;;;;;;;23.40;52.60;;;;;;5068446;28;20062;-62
2022/10/27 03:35:07;;;;;;;6.95;5.07;;;23.40;52.60;;;;;;5068382;28;20530;-61
2022/10/27 03:37:34;;;;;;;6.78;5.28;;;23.40;52.60;;;;;;5067002;28;20392;-61
2022/10/27 03:40:01;;;;;;;6.40;5.75;;;23.40;52.60;;;;;;5067838;28;20048;-61
2022/10/27 03:42:28;;;;;;;7.63;5.60;;;23.40;52.60;;;;;;5068163;28;20045;-61
2022/10/27 03:44:55;;;;;;;7.63;6.00;;;23.40;52.60;;;;;;5066310;28;20440;-61
2022/10/27 03:47:22;;;;;;;6.47;5.72;;;23.40;52.60;;;;;;5048466;28;20052;-62
2022/10/27 03:49:49;;;;;;;7.05;5.88;;;23.40;52.60;;;;;;5054097;28;20048;-61
2022/10/27 03:52:16;;;;;;;7.32;6.18;;;23.40;52.60;;;;;;5070075;28;20044;-61
2022/10/27 03:54:43;;;;;;;6.95;4.75;;;23.40;52.60;;;;;;5074869;28;20080;-61
2022/10/27 03:57:11;;;;;;;5.70;4.93;;;23.40;52.60;;;;;;5072084;28;20048;-62
2022/10/27 03:59:39;;;;;;;8.23;5.65;;;23.40;52.60;;;;;;5063165;28;20511;-61
2022/10/27 04:02:06;;;;;;;6.18;5.05;;;23.40;52.60;;;;;;5068062;28;20048;-62
2022/10/27 04:04:33;;;;;;;6.85;5.57;;;23.40;52.60;;;;;;5068155;28;20047;-62
2022/10/27 04:07:00;;;;;;;6.30;5.15;;;23.40;52.60;;;;;;5067261;28;20044;-61
2022/10/27 04:09:27;;;;;;;6.32;4.97;;;23.40;52.60;;;;;;5068426;28;20055;-62
2022/10/27 04:11:54;;;;;;;6.82;5.63;;;23.40;52.60;;;;;;5066954;28;20495;-61
2022/10/27 04:14:21;;;;;;;6.85;5.85;;;23.40;52.60;;;;;;5067795;28;20079;-61
2022/10/27 04:16:50;;;;;;;7.03;5.25;;;23.40;52.60;;;;;;5067614;28;20055;-61
2022/10/27 04:19:18;;;;;;;5.78;4.82;;;23.40;52.50;;;;;;5067763;28;20076;-62
2022/10/27 04:21:46;;;;;;;7.05;5.35;;;23.40;52.50;;;;;;5067491;28;20080;-61
2022/10/27 04:24:13;;;;;;;5.30;4.68;;;23.50;52.50;;;;;;5067746;28;20510;-62
2022/10/27 04:26:40;;;;;;;6.05;4.95;;;23.50;52.50;;;;;;5067677;28;20048;-61
2022/10/27 04:29:07;;;;;;;5.93;5.32;;;23.40;52.40;;;;;;5068004;28;20052;-61
2022/10/27 04:31:34;;;;;;;6.03;5.15;;;23.50;52.40;;;;;;5061633;28;20040;-61
2022/10/27 04:34:01;;;;;;;6.72;4.90;;;23.50;52.40;;;;;;5067178;28;20045;-61
2022/10/27 04:36:29;;;;;;;6.50;5.07;;;23.40;52.40;;;;;;5067877;28;20543;-61
2022/10/27 04:38:56;;;;;;;5.72;5.05;;;23.40;52.30;;;;;;5077525;28;20416;-61
2022/10/27 04:41:23;;;;;;;6.40;5.15;;;23.40;52.20;;;;;;5087763;28;20051;-62
2022/10/27 04:43:51;;;;;;;6.57;5.28;;;23.40;52.10;;;;;;5071655;28;20048;-61
2022/10/27 04:46:23;;;;;;;5.15;4.60;;;23.40;52.00;;;;;;5067587;28;20317;-61
2022/10/27 04:48:50;;;;;;;5.57;4.72;;;23.40;51.90;;;;;;5067243;28;20051;-61
2022/10/27 04:51:17;;;;;;;6.28;5.07;;;23.40;51.90;;;;;;5067956;28;20052;-62
2022/10/27 04:53:49;;;;;;;6.15;5.22;;;23.40;52.00;;;;;;5067117;28;20497;-61
2022/10/27 04:56:16;;;;;;;6.10;4.75;;;23.40;51.80;;;;;;5066973;28;20051;-62
2022/10/27 04:58:43;;;;;;;7.85;4.68;;;23.40;51.80;;;;;;5067530;28;20055;-61
2022/10/27 05:01:12;;;;;;;5.60;5.05;;;23.40;51.70;;;;;;5067260;28;20068;-61
2022/10/27 05:03:39;;;;;;;6.13;4.78;;;23.40;51.70;;;;;;5057953;28;20391;-61
2022/10/27 05:06:06;;;;;;;5.82;4.75;;;23.40;52.10;;;;;;5044554;28;20052;-60
2022/10/27 05:08:33;;;;;;;6.82;4.90;;;23.40;51.50;;;;;;5050618;28;20048;-60
2022/10/27 05:11:00;;;;;;;5.85;4.65;;;23.40;51.50;;;;;;5050383;28;20048;-60
2022/10/27 05:13:27;;;;;;;6.22;5.10;;;23.40;51.40;;;;;;5049107;28;20041;-60
2022/10/27 05:16:00;;;;;;;5.97;4.75;;;23.40;51.30;;;;;;5053662;28;20489;-59
2022/10/27 05:18:27;;;;;;;6.50;4.70;;;23.40;51.30;;;;;;5050251;28;20048;-59
2022/10/27 05:20:54;;;;;;;5.07;4.20;;;23.40;51.30;;;;;;5048604;28;20400;-58
2022/10/27 05:23:22;;;;;;;5.85;4.93;;;23.40;51.40;;;;;;5052136;28;20048;-60
2022/10/27 05:25:53;;;;;;;6.18;4.70;;;23.40;51.50;;;;;;5052332;28;20052;-59
2022/10/27 05:28:20;;;;;;;6.45;4.65;;;23.40;51.50;;;;;;5046540;28;20052;-63
2022/10/27 05:30:48;;;;;;;5.43;4.93;;;23.40;51.50;;;;;;5052667;28;20049;-60
2022/10/27 05:33:15;;;;;;;7.22;5.50;;;23.30;51.50;;;;;;5044790;28;20052;-60
2022/10/27 05:35:44;;;;;;;5.85;5.25;;;23.40;51.50;;;;;;5044079;28;20507;-61
2022/10/27 05:38:12;;;;;;;5.80;5.07;;;23.40;51.50;;;;;;5048155;28;20520;-60
2022/10/27 05:40:39;;;;;;;7.90;5.47;;;23.40;51.50;;;;;;5044496;28;20496;-61
2022/10/27 05:43:06;;;;;;;5.82;5.25;;;23.40;51.40;;;;;;5038926;28;20053;-60
2022/10/27 05:45:33;;;;;;;8.10;5.40;;;23.40;51.30;;;;;;5050143;28;20041;-60
2022/10/27 05:48:02;;;;;;;6.10;4.90;;;23.40;51.40;;;;;;5050233;28;20049;-61
2022/10/27 05:50:30;;;;;;;6.65;4.68;;;23.50;51.50;;;;;;5053948;28;20048;-60
2022/10/27 05:52:58;;;;;;;6.72;4.95;;;23.50;51.60;;;;;;5048584;28;20041;-60
2022/10/27 05:55:26;;;;;;;7.55;5.07;;;23.60;51.60;;;;;;5050656;28;20045;-60
2022/10/27 05:58:01;;;;;;;8.77;6.05;;;23.60;51.50;;;;;;5047263;28;20445;-61
2022/10/27 06:00:31;;;;;;;6.40;4.97;;;23.60;51.30;;;;;;5051613;28;20049;-61
2022/10/27 06:02:59;;;;;;;;;;;23.60;51.20;;;;;;5049000;28;20405;-60
2022/10/27 06:05:28;;;;;;;8.20;5.05;;;23.70;51.10;;;;;;5058723;28;19969;-60
2022/10/27 06:07:55;;;;;;;8.55;5.13;;;23.70;51.00;;;;;;5047943;28;20049;-60
2022/10/27 06:10:23;;;;;;;7.32;5.15;;;23.70;50.70;;;;;;5049748;28;20051;-61
2022/10/27 06:12:51;;;;;;;8.15;5.63;;;23.70;50.80;;;;;;5047877;28;20754;-60
2022/10/27 06:15:18;;;;;;;13.38;5.78;;;23.70;50.80;;;;;;5048549;28;20073;-61
2022/10/27 06:17:52;;;;;;;6.80;5.00;;;23.80;50.90;;;;;;5057949;28;20178;-60
2022/10/27 06:20:20;;;;;;;7.95;4.90;;;23.80;50.90;;;;;;5052711;28;20051;-60
2022/10/27 06:22:47;;;;;;;6.43;4.75;;;23.80;51.00;;;;;;5046630;28;20052;-59
2022/10/27 06:25:14;;;;;;;7.00;5.45;;;23.80;51.10;;;;;;5057256;28;20049;-61
2022/10/27 06:27:41;;;;;;;7.10;4.90;;;23.80;50.90;;;;;;5056139;28;20143;-60
2022/10/27 06:30:09;;;;;;;6.07;4.93;;;23.90;50.90;;;;;;5051860;28;20521;-60
2022/10/27 06:32:37;;;;;;;5.28;4.78;;;23.90;50.80;;;;;;5058533;28;20529;-61
2022/10/27 06:35:07;;;;;;;6.25;5.60;;;23.90;50.60;;;;;;5049300;28;20056;-60
2022/10/27 06:37:42;;;;;;;8.73;5.15;;;23.90;50.60;;;;;;5056111;28;20047;-61
2022/10/27 06:40:11;;;;;;;8.18;5.28;;;23.90;50.40;;;;;;5050778;28;20048;-61
2022/10/27 06:42:38;;;;;;;7.53;5.00;;;24.00;50.40;;;;;;5044415;28;20061;-60
2022/10/27 06:45:25;;;;;;;6.45;4.95;;;24.00;50.30;;;;;;5049817;28;20101;-59
2022/10/27 06:47:58;;;;;;;5.88;4.97;;;24.00;50.40;;;;;;5045533;28;20049;-60
2022/10/27 06:50:25;;;;;;;7.13;5.38;;;24.00;50.40;;;;;;5049730;28;20048;-60
2022/10/27 06:52:53;;;;;;;13.27;5.80;;;24.00;50.50;;;;;;5040916;28;20838;-61
2022/10/27 06:55:20;;;;;;;6.75;5.20;;;24.00;50.50;;;;;;5046379;28;20068;-60
2022/10/27 06:57:47;;;;;;;11.35;5.90;;;24.10;50.50;;;;;;5039999;28;20634;-60
2022/10/27 07:00:15;;;;;;;8.75;5.75;;;24.10;50.40;;;;;;5051592;28;20045;-61
2022/10/27 07:02:42;;;;;;;8.90;5.32;;;24.10;50.40;;;;;;5048722;28;20051;-60
2022/10/27 07:05:10;;;;;;;9.65;5.53;;;24.20;50.40;;;;;;5051826;28;20052;-61
2022/10/27 07:07:37;;;;;;;6.70;5.53;;;24.20;50.30;;;;;;5045296;28;20484;-61
2022/10/27 07:10:07;;;;;;;5.90;4.72;;;24.30;50.30;;;;;;5044130;28;20048;-60
2022/10/27 07:12:34;;;;;;;8.57;5.63;;;24.30;50.30;;;;;;5043331;28;20488;-61
2022/10/27 07:15:01;;;;;;;6.93;4.75;;;24.30;50.10;;;;;;5048297;28;20052;-59
2022/10/27 07:17:28;;;;;;;6.13;4.55;;;24.40;50.00;;;;;;5049342;28;20492;-59
2022/10/27 07:19:55;;;;;;;8.88;4.63;;;24.30;49.80;;;;;;5041786;28;20057;-59
2022/10/27 07:22:22;;;;;;;5.13;4.63;;;24.40;49.80;;;;;;5039968;28;20052;-58
2022/10/27 07:24:49;;;;;;;5.82;4.57;;;24.40;49.70;;;;;;5044209;28;20428;-59
2022/10/27 07:27:17;;;;;;;5.13;4.53;;;24.40;49.70;;;;;;5044050;28;20044;-59
2022/10/27 07:29:44;;;;;;;6.03;4.45;;;24.40;49.70;;;;;;5044197;28;20496;-60
2022/10/27 07:32:11;;;;;;;5.22;4.32;;;24.40;49.70;;;;;;5046217;28;20037;-59
2022/10/27 07:34:39;;;;;;;7.47;4.70;;;24.40;49.70;;;;;;5048278;28;20049;-60
2022/10/27 07:37:06;;;;;;;8.00;4.40;;;24.40;50.00;;;;;;5047353;28;20057;-59
2022/10/27 07:39:33;;;;;;;6.95;4.88;;;24.50;50.10;;;;;;5050641;28;20037;-59
2022/10/27 07:42:01;;;;;;;8.85;4.57;;;24.50;50.30;;;;;;5048842;28;20040;-60
2022/10/27 07:44:28;;;;;;;6.30;4.72;;;24.50;50.30;;;;;;5042132;28;20041;-59
2022/10/27 07:46:55;;;;;;;6.10;4.90;;;24.50;50.30;;;;;;5047080;28;20044;-59
2022/10/27 07:49:22;;;;;;;5.63;4.82;;;24.50;50.20;;;;;;5047389;28;20056;-59
2022/10/27 07:51:49;;;;;;;6.05;4.40;;;24.50;50.20;;;;;;5048242;28;20067;-59
2022/10/27 07:54:17;;;;;;;5.65;4.10;;;24.60;50.30;;;;;;5054245;28;20048;-60
2022/10/27 07:56:49;;;;;;;11.50;4.82;;;24.60;50.30;;;;;;5052993;28;20071;-60
2022/10/27 07:59:16;;;;;;;6.47;4.15;;;24.60;50.30;;;;;;5048110;28;20049;-60
2022/10/27 08:01:43;;;;;;;5.63;4.72;;;24.60;50.20;;;;;;5047051;28;20059;-61
2022/10/27 08:04:10;;;;;;;6.32;4.47;;;24.70;50.30;;;;;;5046544;28;20049;-60
2022/10/27 08:06:37;;;;;;;5.03;4.05;;;24.70;50.30;;;;;;5044170;28;20516;-60
2022/10/27 08:09:04;;;;;;;5.57;4.32;;;24.70;50.10;;;;;;5053964;28;21346;-60
2022/10/27 08:11:31;;;;;;;8.73;4.70;;;24.70;50.00;;;;;;5048979;28;20048;-61
2022/10/27 08:13:58;;;;;;;10.25;4.75;;;24.70;50.00;;;;;;5047404;28;20079;-62
2022/10/27 08:18:53;;;;;;;9.95;5.28;;;24.70;49.90;;;;;;5042673;28;20051;-60
2022/10/27 08:21:20;;;;;;;6.43;4.60;;;24.70;49.80;;;;;;5049109;28;20052;-59
2022/10/27 08:23:47;;;;;;;6.38;4.15;;;24.70;49.80;;;;;;5048016;28;20053;-60
2022/10/27 08:26:14;;;;;;;7.38;4.93;;;24.80;49.80;;;;;;5043526;28;20750;-59
2022/10/27 08:28:42;;;;;;;6.85;4.72;;;24.80;49.80;;;;;;5043290;28;20052;-60
2022/10/27 08:31:10;;;;;;;6.55;5.32;;;24.80;49.80;;;;;;5039206;28;20067;-60
2022/10/27 08:33:36;;;;;;;6.28;4.32;;;24.80;49.90;;;;;;5043308;28;20049;-59
2022/10/27 08:36:04;;;;;;;6.70;4.88;;;24.80;49.90;;;;;;5055184;28;20052;-60
2022/10/27 08:38:32;;;;;;;4.22;3.80;;;24.80;50.00;;;;;;5053654;28;20664;-60
2022/10/27 08:41:26;;;;;;;6.03;4.45;;;24.80;50.10;;;;;;5051684;28;20417;-59
2022/10/27 08:44:06;;;;;;;7.55;4.32;;;24.80;50.20;;;;;;5051109;28;20049;-57
2022/10/27 08:46:39;;;;;;;8.68;3.92;;;24.80;50.30;;;;;;5042974;28;20442;-59
2022/10/27 08:49:24;;;;;;;7.65;4.22;;;24.90;50.50;;;;;;5041286;28;20523;-59
2022/10/27 08:51:54;;;;;;;4.85;4.20;;;24.90;50.50;;;;;;5063370;28;20045;-60
2022/10/27 08:54:24;;;;;;;6.90;4.50;;;24.90;50.50;;;;;;5046323;28;20048;-59
2022/10/27 08:56:55;;;;;;;6.30;4.55;;;24.90;50.50;;;;;;5047427;28;20060;-60
2022/10/27 08:59:24;;;;;;;4.80;4.05;;;25.00;50.60;;;;;;5051505;28;20061;-59
2022/10/27 09:02:26;;;;;;;5.43;4.10;;;25.00;50.60;;;;;;5049067;28;20055;-59
2022/10/27 09:05:33;;;;;;;6.65;4.57;;;25.00;50.70;;;;;;5051498;28;20063;-60
2022/10/27 09:08:15;;;;;;;5.97;3.97;;;25.00;50.70;;;;;;5047931;28;20045;-59
2022/10/27 09:11:25;;;;;;;4.53;4.00;;;25.00;50.60;;;;;;5051166;28;20048;-59
2022/10/27 09:14:26;;;;;;;6.85;4.53;;;25.10;50.70;;;;;;5058396;28;20056;-59
2022/10/27 09:17:11;;;;;;;5.45;4.60;;;25.10;50.60;;;;;;5064800;28;20389;-59
2022/10/27 09:19:44;;;;;;;6.97;4.00;;;25.10;50.60;;;;;;5067609;28;20044;-59
2022/10/27 09:22:17;;;;;;;5.55;4.00;;;25.10;50.50;;;;;;5052956;28;20485;-60
2022/10/27 09:24:56;;;;;;;5.28;3.58;;;25.10;50.50;;;;;;5056670;28;20527;-59
2022/10/27 09:27:24;;;;;;;9.23;4.07;;;25.10;50.60;;;;;;5056441;28;20139;-58
2022/10/27 09:29:53;;;;;;;6.57;4.40;;;25.10;50.70;;;;;;5053706;28;20048;-57
2022/10/27 09:32:25;;;;;;;5.43;3.65;;;25.10;50.70;;;;;;5053982;28;20062;-59
2022/10/27 09:35:04;;;;;;;4.15;3.75;;;25.20;50.70;;;;;;5055027;28;20074;-58
2022/10/27 09:37:39;;;;;;;4.90;3.55;;;25.20;50.70;;;;;;5055741;28;20053;-58
2022/10/27 09:40:12;;;;;;;4.18;3.60;;;25.20;50.80;;;;;;5059593;28;20148;-57
2022/10/27 09:42:39;;;;;;;6.30;4.13;;;25.30;50.90;;;;;;5056786;28;20064;-58
2022/10/27 09:45:25;;;;;;;4.82;4.03;;;25.30;51.00;;;;;;5058429;28;20567;-59
2022/10/27 09:48:06;;;;;;;5.65;3.58;;;25.30;50.90;;;;;;5056491;28;20392;-60
2022/10/27 09:50:49;;;;;;;4.28;3.88;;;25.40;50.90;;;;;;5054883;28;20151;-60
2022/10/27 09:53:43;;;;;;;4.30;3.90;;;25.40;50.90;;;;;;5044760;28;20048;-60
2022/10/27 09:56:26;;;;;;;3.55;3.13;;;25.40;50.80;;;;;;5053152;28;20397;-60
2022/10/27 09:59:01;;;;;;;6.40;4.05;;;25.40;51.00;;;;;;5050807;28;20055;-60
2022/10/27 10:01:55;;;;;;;4.43;3.90;;;25.40;51.10;;;;;;5049968;28;20056;-59
2022/10/27 10:04:30;;;;;;;6.28;3.83;;;25.40;51.00;;;;;;5049698;28;20559;-60
2022/10/27 10:07:02;;;;;;;4.78;3.97;;;25.40;51.00;;;;;;5047575;28;20048;-60
2022/10/27 10:09:35;;;;;;;4.45;3.30;;;25.40;50.90;;;;;;5052225;28;20509;-60
2022/10/27 10:12:24;;;;;;;4.45;3.58;;;25.40;50.90;;;;;;5056420;28;20487;-60
2022/10/27 10:15:12;;;;;;;5.47;3.60;;;25.40;50.80;;;;;;5048204;28;20399;-60
2022/10/27 10:17:42;;;;;;;5.90;3.13;;;25.50;50.80;;;;;;5060542;28;20070;-59
2022/10/27 10:20:38;;;;;;;6.57;3.70;;;25.40;50.70;;;;;;5057313;28;20138;-60
2022/10/27 10:23:23;;;;;;;4.10;3.50;;;25.40;50.70;;;;;;5050221;28;20447;-62
2022/10/27 10:25:53;;;;;;;5.35;3.50;;;25.40;50.70;;;;;;5051961;28;20490;-60
2022/10/27 10:28:38;;;;;;;7.53;4.22;;;25.40;50.70;;;;;;5054548;28;20051;-60
2022/10/27 10:31:08;;;;;;;3.83;3.45;;;25.40;50.70;;;;;;5058512;28;21268;-60
2022/10/27 10:33:39;;;;;;;3.78;3.33;;;25.40;50.70;;;;;;5060422;28;20064;-60
2022/10/27 10:36:25;;;;;;;5.25;3.50;;;25.40;50.70;;;;;;5065328;28;20074;-60
2022/10/27 10:38:55;;;;;;;3.70;3.30;;;25.40;50.80;;;;;;5055890;28;20531;-60
2022/10/27 10:41:23;;;;;;;3.83;3.38;;;25.40;50.80;;;;;;5059826;28;20058;-61
2022/10/27 10:44:14;;;;;;;4.22;3.17;;;25.40;50.80;;;;;;5055194;28;20048;-61
2022/10/27 10:46:53;;;;;;;4.53;3.20;;;25.40;50.80;;;;;;5052353;28;20128;-61
2022/10/27 10:49:23;;;;;;;5.22;3.65;;;25.40;50.80;;;;;;5049983;28;20057;-62
2022/10/27 10:51:54;;;;;;;4.57;3.47;;;25.50;50.90;;;;;;5049093;28;20037;-60
2022/10/27 10:54:30;;;;;;;3.85;3.10;;;25.40;50.90;;;;;;5050145;28;20489;-61
2022/10/27 10:56:57;;;;;;;3.85;3.45;;;25.50;51.00;;;;;;5058502;28;20442;-61
2022/10/27 10:59:32;;;;;;;6.88;3.22;;;25.50;51.00;;;;;;5052821;28;20075;-62
2022/10/27 11:02:28;;;;;;;6.55;3.63;;;25.50;51.00;;;;;;5047772;28;20044;-61
2022/10/27 11:05:08;;;;;;;5.93;3.42;;;25.50;50.90;;;;;;5041795;28;20053;-62
2022/10/27 11:07:36;;;;;;;3.83;3.20;;;25.50;50.90;;;;;;5046708;28;21154;-60
2022/10/27 11:10:12;;;;;;;4.95;3.72;;;25.60;50.90;;;;;;5051793;28;20516;-60
2022/10/27 11:12:47;;;;;;;5.57;3.90;;;25.50;50.60;;;;;;5048630;28;20500;-61
2022/10/27 11:15:27;;;;;;;3.30;3.03;;;25.50;50.50;;;;;;5056860;28;20076;-62
2022/10/27 11:18:00;;;;;;;5.55;3.53;;;25.50;50.70;;;;;;5054836;28;20114;-61
2022/10/27 11:20:35;;;;;;;4.00;3.60;;;25.50;50.70;;;;;;5050956;28;20045;-61
2022/10/27 11:23:22;;;;;;;5.82;3.42;;;25.50;50.70;;;;;;5053718;28;20049;-61
2022/10/27 11:25:49;;;;;;;6.45;3.33;;;25.60;50.90;;;;;;5053692;28;20052;-61
2022/10/27 11:28:53;;;;;;;3.33;2.88;;;25.50;50.80;;;;;;5054404;28;20419;-62
2022/10/27 11:31:37;;;;;;;3.30;3.00;;;25.60;50.90;;;;;;5052948;28;20048;-61
2022/10/27 11:34:36;;;;;;;4.30;3.28;;;25.60;50.80;;;;;;5059809;28;20058;-62
2022/10/27 11:37:15;;;;;;;3.67;2.95;;;25.60;50.80;;;;;;5047589;28;20044;-61
2022/10/27 11:40:01;;;;;;;3.10;2.90;;;25.60;50.70;;;;;;5046519;28;20061;-61
2022/10/27 11:42:53;;;;;;;4.05;3.00;;;25.70;50.70;;;;;;5051472;28;20053;-61
2022/10/27 11:45:34;;;;;;;2.92;2.58;;;25.70;51.20;;;;;;5049268;28;20516;-61
2022/10/27 11:48:08;;;;;;;6.78;3.05;;;25.70;50.60;;;;;;5058869;28;20059;-61
2022/10/27 11:50:52;;;;;;;5.40;2.60;;;25.70;50.60;;;;;;5051087;28;20048;-62
2022/10/27 11:53:21;;;;;;;2.90;2.58;;;25.70;50.50;;;;;;5047422;28;20040;-61
2022/10/27 11:56:14;;;;;;;4.18;3.40;;;25.70;50.60;;;;;;5048347;28;20049;-61
2022/10/27 11:59:05;;;;;;;2.83;2.58;;;25.70;50.60;;;;;;5045887;28;20053;-62
2022/10/27 12:02:04;;;;;;;3.13;2.80;;;25.70;50.60;;;;;;5050125;28;20102;-62
2022/10/27 12:04:47;;;;;;;4.75;2.75;;;25.70;50.50;;;;;;5044043;28;20048;-61
2022/10/27 12:07:38;;;;;;;4.13;2.72;;;25.70;50.50;;;;;;5044726;28;20067;-61
2022/10/27 12:10:34;;;;;;;2.65;2.33;;;25.70;50.40;;;;;;5044264;28;20453;-62
2022/10/27 12:13:15;;;;;;;7.80;3.17;;;25.70;50.30;;;;;;5050389;28;20064;-61
2022/10/27 12:15:59;;;;;;;3.40;2.50;;;25.70;50.30;;;;;;5049868;28;20054;-61
2022/10/27 12:18:57;;;;;;;5.30;2.88;;;25.70;50.40;;;;;;5052213;28;20194;-60
2022/10/27 12:21:45;;;;;;;4.65;3.35;;;25.70;50.40;;;;;;5052217;28;20048;-60
2022/10/27 12:24:43;;;;;;;6.45;2.92;;;25.80;50.30;;;;;;5044005;28;20088;-58
2022/10/27 12:27:25;;;;;;;5.25;2.88;;;25.80;50.30;;;;;;5051659;28;20060;-59
2022/10/27 12:29:58;;;;;;;4.57;3.10;;;25.80;50.20;;;;;;5043218;28;20056;-59
2022/10/27 12:32:37;;;;;;;5.03;2.80;;;25.80;50.20;;;;;;5051253;28;20144;-60
2022/10/27 12:35:34;;;;;;;5.53;2.90;;;25.80;50.10;;;;;;5048821;28;20047;-59
2022/10/27 12:38:41;;;;;;;3.67;2.58;;;25.80;50.10;;;;;;5054829;28;20064;-59
2022/10/27 12:41:22;;;;;;;3.63;2.60;;;25.90;50.10;;;;;;5059434;28;20053;-58
2022/10/27 12:44:04;;;;;;;3.15;2.85;;;25.80;50.10;;;;;;5053633;28;20049;-58
2022/10/27 12:47:01;;;;;;;4.53;2.80;;;25.80;50.00;;;;;;5055919;28;20052;-61
2022/10/27 12:49:47;;;;;;;3.30;2.60;;;25.80;50.00;;;;;;5054298;28;20036;-62
2022/10/27 12:52:24;;;;;;;9.90;2.20;;;25.80;50.00;;;;;;5049823;28;20508;-60
2022/10/27 12:55:27;;;;;;;4.97;2.53;;;25.80;50.50;;;;;;5048341;28;20045;-61
2022/10/27 12:58:07;;;;;;;5.53;2.88;;;25.80;49.90;;;;;;5054368;28;20408;-60
2022/10/27 13:01:09;;;;;;;2.72;2.25;;;25.80;49.80;;;;;;5041058;28;20049;-60
2022/10/27 13:03:52;;;;;;;4.05;2.42;;;25.90;49.80;;;;;;5053807;28;20056;-59
2022/10/27 13:06:49;;;;;;;3.50;2.97;;;25.80;49.80;;;;;;5050047;28;20428;-61
2022/10/27 13:09:51;;;;;;;7.07;3.33;;;25.90;49.70;;;;;;5048782;28;20044;-60
2022/10/27 13:12:36;;;;;;;4.70;2.55;;;25.80;49.70;;;;;;5053785;28;20056;-61
2022/10/27 13:15:45;;;;;;;10.38;3.38;;;25.90;49.70;;;;;;5048217;28;20055;-61
2022/10/27 13:18:41;;;;;;;2.90;2.60;;;25.80;49.70;;;;;;5056446;28;20079;-61
2022/10/27 13:21:48;;;;;;;6.18;2.97;;;25.80;49.80;;;;;;5055698;28;20569;-60
2022/10/27 13:24:36;;;;;;;2.80;2.55;;;25.80;49.70;;;;;;5050004;28;20060;-60